Time;durP1;ratioP1;P1;durP2;ratioP2;P2;SDS_P1;SDS_P2;PMS_P1;PMS_P2;Temp;Humidity;BMP_temperature;BMP_pressure;BME280_temperature;BME280_humidity;BME280_pressure;Samples;Min_cycle;Max_cycle;Signal;HPM_P1;HPM_P2
2021/04/03 00:00:56;;;;;;;10.05;5.97;;;;;;;3.66;62.02;98721.58;1807892;78;21016;-44
2021/04/03 00:03:26;;;;;;;10.88;5.97;;;;;;;3.64;62.25;98727.26;1773379;80;21882;-45
2021/04/03 00:05:54;;;;;;;9.68;6.58;;;;;;;3.63;62.71;98732.97;1782806;78;21154;-44
2021/04/03 00:08:25;;;;;;;10.53;6.50;;;;;;;3.65;62.51;98732.07;1796554;78;21158;-44
2021/04/03 00:11:04;;;;;;;7.50;5.70;;;;;;;3.70;61.97;98724.61;1793588;79;21613;-44
2021/04/03 00:13:39;;;;;;;10.98;5.85;;;;;;;3.82;61.43;98728.70;1794358;79;21012;-44
2021/04/03 00:16:10;;;;;;;10.50;5.70;;;;;;;3.88;61.05;98728.70;1778739;79;21039;-44
2021/04/03 00:18:38;;;;;;;6.80;5.20;;;;;;;3.91;60.85;98725.38;1748724;80;21190;-45
2021/04/03 00:21:05;;;;;;;9.08;5.40;;;;;;;3.96;60.59;98724.94;1776839;80;21417;-45
2021/04/03 00:23:33;;;;;;;7.83;5.47;;;;;;;3.99;60.22;98721.02;1757730;80;21652;-45
2021/04/03 00:26:03;;;;;;;12.37;5.92;;;;;;;4.01;60.03;98720.70;1803594;79;21206;-45
2021/04/03 00:28:32;;;;;;;11.53;4.55;;;;;;;4.04;59.78;98728.08;1799251;79;21063;-45
2021/04/03 00:31:01;;;;;;;10.50;5.50;;;;;;;4.04;59.61;98723.50;1782542;79;22034;-45
2021/04/03 00:33:29;;;;;;;13.38;6.42;;;;;;;4.03;59.40;98717.11;1774601;79;22219;-45
2021/04/03 00:35:57;;;;;;;9.45;5.80;;;;;;;4.02;59.54;98713.64;1787967;79;21194;-45
2021/04/03 00:38:26;;;;;;;8.00;5.40;;;;;;;4.02;59.40;98714.23;1788572;79;21159;-45
2021/04/03 00:40:55;;;;;;;9.40;6.05;;;;;;;4.02;59.39;98712.30;1775871;79;21163;-45
2021/04/03 00:43:23;;;;;;;7.17;4.63;;;;;;;4.00;59.43;98711.08;1776956;79;21574;-45
2021/04/03 00:45:51;;;;;;;8.85;5.97;;;;;;;4.00;59.43;98711.08;1794256;79;21651;-45
2021/04/03 00:48:20;;;;;;;8.45;5.75;;;;;;;3.97;59.41;98711.17;1793159;79;21202;-45
2021/04/03 00:50:51;;;;;;;10.45;6.20;;;;;;;3.96;59.49;98712.86;1765831;79;21057;-45
2021/04/03 00:53:22;;;;;;;11.15;6.35;;;;;;;3.94;59.42;98715.31;1776809;79;21146;-45
2021/04/03 00:55:56;;;;;;;11.93;6.42;;;;;;;3.93;59.16;98717.77;1762388;79;21804;-45
2021/04/03 00:58:24;;;;;;;9.13;5.90;;;;;;;3.92;59.17;98710.83;1791618;78;21361;-45
2021/04/03 01:00:53;;;;;;;10.65;5.97;;;;;;;3.92;58.72;98713.51;1774902;80;21929;-45
2021/04/03 01:03:23;;;;;;;;;;;;;;;3.90;58.59;98718.44;1769726;79;21011;-45
2021/04/03 01:05:53;;;;;;;8.20;5.12;;;;;;;3.85;58.43;98710.59;1750634;81;20303;-44
2021/04/03 01:08:21;;;;;;;9.38;5.28;;;;;;;3.69;59.11;98707.51;1792262;78;21361;-45
2021/04/03 01:10:54;;;;;;;8.55;5.42;;;;;;;3.64;60.16;98713.86;1785238;79;21334;-45
2021/04/03 01:14:12;;;;;;;6.72;5.10;;;;;;;3.64;60.16;98713.86;1781511;80;21043;-45
2021/04/03 01:16:59;;;;;;;9.73;5.22;;;;;;;3.60;60.49;98715.64;1801388;77;21154;-45
2021/04/03 01:20:07;;;;;;;9.28;6.22;;;;;;;3.57;60.50;98711.50;1787201;78;21640;-45
2021/04/03 01:23:19;;;;;;;9.40;4.72;;;;;;;3.54;59.96;98708.90;1785537;78;21166;-45
2021/04/03 01:26:34;;;;;;;8.38;5.20;;;;;;;3.45;60.01;98708.20;1808420;78;21201;-44
2021/04/03 01:29:31;;;;;;;7.60;5.30;;;;;;;3.35;60.60;98713.39;1816921;79;21538;-44
2021/04/03 01:32:01;;;;;;;7.85;4.92;;;;;;;3.30;61.54;98715.48;1800943;78;21547;-45
2021/04/03 01:34:31;;;;;;;8.55;5.17;;;;;;;3.24;62.20;98712.23;1771580;80;21576;-45
2021/04/03 01:37:04;;;;;;;6.83;3.70;;;;;;;3.24;62.46;98706.09;1809205;78;21162;-45
2021/04/03 01:39:34;;;;;;;6.95;5.00;;;;;;;3.24;62.55;98706.09;1803287;78;21742;-45
2021/04/03 01:42:10;;;;;;;8.83;4.78;;;;;;;3.20;62.54;98707.83;1807246;78;21186;-45
2021/04/03 01:44:47;;;;;;;9.75;5.53;;;;;;;3.21;62.39;98708.86;1779221;78;21171;-44
2021/04/03 01:47:20;;;;;;;10.53;5.17;;;;;;;3.20;62.09;98703.81;1780002;78;21162;-45
2021/04/03 01:49:53;;;;;;;7.03;4.92;;;;;;;3.18;62.15;98704.72;1778428;78;21186;-44
2021/04/03 01:52:26;;;;;;;8.65;5.17;;;;;;;3.17;62.29;98701.80;1787257;78;22525;-45
2021/04/03 01:54:56;;;;;;;8.53;5.25;;;;;;;3.15;62.73;98703.45;1796761;78;21174;-44
2021/04/03 01:57:27;;;;;;;8.68;5.22;;;;;;;3.17;62.57;98711.17;1779285;78;21127;-44
2021/04/03 02:00:01;;;;;;;7.97;5.35;;;;;;;3.18;62.32;98707.39;1807157;78;21138;-45
2021/04/03 02:02:31;;;;;;;;;;;;;;;3.15;62.13;98706.13;1804619;78;21095;-44
2021/04/03 02:05:00;;;;;;;9.28;5.67;;;;;;;3.18;62.27;98709.52;1765839;78;21710;-44
2021/04/03 02:07:29;;;;;;;11.65;6.12;;;;;;;3.11;62.19;98707.11;1798065;77;21182;-44
2021/04/03 02:09:59;;;;;;;11.25;5.95;;;;;;;3.13;61.67;98703.56;1787932;78;21209;-44
2021/04/03 02:12:39;;;;;;;7.28;5.08;;;;;;;3.17;61.42;98712.52;1798634;78;21434;-44
2021/04/03 02:15:13;;;;;;;11.48;5.83;;;;;;;3.20;61.14;98710.52;1764743;80;21150;-44
2021/04/03 02:17:44;;;;;;;8.98;5.37;;;;;;;3.20;60.95;98705.94;1793876;79;21196;-44
2021/04/03 02:20:13;;;;;;;7.85;5.65;;;;;;;3.23;60.92;98705.31;1735387;78;21115;-44
2021/04/03 02:22:43;;;;;;;9.33;5.40;;;;;;;3.26;60.89;98703.30;1778586;80;21174;-44
2021/04/03 02:25:14;;;;;;;12.82;5.83;;;;;;;3.29;60.83;98703.98;1777436;78;21126;-44
2021/04/03 02:27:42;;;;;;;8.90;5.72;;;;;;;3.31;60.82;98705.79;1777244;78;21154;-45
2021/04/03 02:30:16;;;;;;;10.32;6.05;;;;;;;3.34;60.84;98709.14;1788915;79;21380;-44
2021/04/03 02:32:53;;;;;;;9.40;5.90;;;;;;;3.35;60.66;98712.05;1797611;79;21541;-44
2021/04/03 02:35:24;;;;;;;9.70;5.33;;;;;;;3.37;60.67;98711.73;1801077;77;21106;-44
2021/04/03 02:37:59;;;;;;;8.98;6.08;;;;;;;3.37;60.56;98713.86;1771740;80;21143;-44
2021/04/03 02:40:31;;;;;;;10.95;6.22;;;;;;;3.38;60.47;98710.63;1754899;80;21407;-44
2021/04/03 02:43:26;;;;;;;8.23;5.60;;;;;;;3.37;60.48;98709.84;1772861;79;21378;-44
2021/04/03 02:46:08;;;;;;;10.23;5.72;;;;;;;3.38;60.46;98706.61;1771745;79;21174;-44
2021/04/03 02:48:40;;;;;;;8.58;5.25;;;;;;;3.34;60.46;98704.36;1771675;79;21162;-44
2021/04/03 02:51:08;;;;;;;10.93;5.95;;;;;;;3.34;60.39;98705.70;1760497;79;21141;-45
2021/04/03 02:53:36;;;;;;;8.33;5.45;;;;;;;3.35;60.46;98705.91;1791686;79;21122;-44
2021/04/03 02:56:06;;;;;;;8.38;5.55;;;;;;;3.34;60.42;98705.70;1782644;79;21501;-44
2021/04/03 02:58:38;;;;;;;8.00;5.08;;;;;;;3.35;60.40;98709.93;1743752;79;21066;-44
2021/04/03 03:01:10;;;;;;;6.72;4.90;;;;;;;3.33;60.42;98705.47;1765258;79;25373;-45
2021/04/03 03:03:40;;;;;;;8.48;5.22;;;;;;;3.32;60.35;98701.22;1774926;79;21121;-44
2021/04/03 03:06:09;;;;;;;10.23;5.58;;;;;;;3.32;60.30;98697.20;1752164;80;21412;-44
2021/04/03 03:08:39;;;;;;;16.23;6.08;;;;;;;3.32;60.30;98703.90;1767290;80;21206;-44
2021/04/03 03:11:07;;;;;;;8.63;5.15;;;;;;;3.32;60.35;98702.00;1779074;79;21734;-44
2021/04/03 03:13:36;;;;;;;10.05;4.97;;;;;;;3.27;60.19;98704.09;1769579;79;21174;-44
2021/04/03 03:16:06;;;;;;;9.38;5.10;;;;;;;3.18;60.30;98700.70;1778052;79;21138;-44
2021/04/03 03:18:34;;;;;;;7.03;4.67;;;;;;;3.10;60.52;98701.55;1757605;80;21173;-44
2021/04/03 03:21:03;;;;;;;10.20;5.15;;;;;;;3.05;60.59;98699.27;1795367;79;21205;-44
2021/04/03 03:23:32;;;;;;;10.30;5.00;;;;;;;3.02;60.71;98698.59;1798311;79;21177;-45
2021/04/03 03:26:02;;;;;;;9.05;4.87;;;;;;;2.99;60.90;98701.94;1789316;79;21162;-45
2021/04/03 03:28:32;;;;;;;7.80;4.87;;;;;;;3.03;60.88;98701.50;1775946;79;21163;-44
2021/04/03 03:31:01;;;;;;;7.72;4.75;;;;;;;3.05;60.88;98702.50;1743980;81;22221;-45
2021/04/03 03:33:31;;;;;;;8.13;4.70;;;;;;;3.06;60.87;98698.17;1782776;79;21169;-45
2021/04/03 03:36:00;;;;;;;9.23;5.03;;;;;;;3.09;60.85;98697.30;1771251;79;21169;-45
2021/04/03 03:38:29;;;;;;;7.92;4.67;;;;;;;3.10;60.79;98696.95;1739235;79;21137;-45
2021/04/03 03:40:57;;;;;;;7.92;4.65;;;;;;;3.11;60.75;98688.37;1706600;81;21150;-45
2021/04/03 03:43:27;;;;;;;;;;;;;;;2.66;60.77;98622.09;1769102;79;21197;-45
2021/04/03 03:45:56;;;;;;;7.70;4.55;;;;;;;3.11;60.74;98692.38;1742691;81;21213;-44
2021/04/03 03:48:24;;;;;;;8.20;5.00;;;;;;;2.97;60.97;98692.09;1765763;79;21170;-44
2021/04/03 03:50:52;;;;;;;6.67;4.55;;;;;;;2.96;61.09;98685.71;1794823;79;21179;-44
2021/04/03 03:53:20;;;;;;;9.10;4.60;;;;;;;2.98;61.09;98692.33;1771263;79;21098;-44
2021/04/03 03:55:49;;;;;;;8.60;4.85;;;;;;;3.01;61.10;98693.55;1787545;79;21106;-45
2021/04/03 03:58:19;;;;;;;7.53;4.28;;;;;;;3.05;61.11;98701.95;1780060;79;22312;-45
2021/04/03 04:00:49;;;;;;;7.58;4.47;;;;;;;3.11;61.05;98703.09;1794041;79;21114;-45
2021/04/03 04:03:18;;;;;;;5.17;3.62;;;;;;;3.11;60.97;98704.44;1769906;79;21573;-44
2021/04/03 04:05:48;;;;;;;6.50;3.95;;;;;;;3.14;61.01;98710.50;1775214;79;21161;-45
2021/04/03 04:08:18;;;;;;;8.95;4.33;;;;;;;3.15;60.95;98708.81;1777766;79;21491;-44
2021/04/03 04:10:49;;;;;;;8.38;4.60;;;;;;;2.78;60.88;98656.95;1778071;79;21202;-45
2021/04/03 04:13:18;;;;;;;9.57;4.87;;;;;;;3.15;61.05;98713.41;1793489;79;21608;-44
2021/04/03 04:15:48;;;;;;;9.00;4.35;;;;;;;3.18;61.09;98714.88;1785851;79;21300;-45
2021/04/03 04:18:17;;;;;;;4.37;3.50;;;;;;;3.21;61.07;98716.11;1794873;79;21565;-45
2021/04/03 04:20:45;;;;;;;8.40;4.45;;;;;;;3.25;60.95;98714.34;1776798;79;21568;-44
2021/04/03 04:23:15;;;;;;;7.83;4.40;;;;;;;3.29;60.92;98711.26;1793595;79;21244;-44
2021/04/03 04:25:45;;;;;;;9.43;4.75;;;;;;;3.32;60.90;98707.91;1778376;79;21161;-44
2021/04/03 04:28:14;;;;;;;5.35;3.92;;;;;;;3.37;60.85;98711.73;1782432;79;21185;-44
2021/04/03 04:30:42;;;;;;;10.85;4.80;;;;;;;3.41;60.84;98709.97;1767784;79;21151;-44
2021/04/03 04:33:10;;;;;;;7.30;4.92;;;;;;;3.43;60.77;98709.09;1782811;79;21146;-45
2021/04/03 04:35:39;;;;;;;10.05;4.92;;;;;;;3.45;60.67;98712.22;1774807;79;21198;-45
2021/04/03 04:38:09;;;;;;;8.50;4.80;;;;;;;3.46;60.67;98714.58;1763618;81;21181;-44
2021/04/03 04:40:38;;;;;;;8.73;4.83;;;;;;;3.48;60.60;98715.59;1790532;78;21253;-44
2021/04/03 04:43:08;;;;;;;10.72;5.22;;;;;;;3.53;60.62;98712.72;1808703;78;21149;-44
2021/04/03 04:45:37;;;;;;;7.92;5.37;;;;;;;3.56;60.56;98720.09;1786169;78;21145;-44
2021/04/03 04:48:08;;;;;;;9.33;5.03;;;;;;;3.59;60.56;98715.95;1805105;78;22224;-44
2021/04/03 04:50:36;;;;;;;;;;;;;;;3.59;60.62;98714.61;1784685;78;21193;-45
2021/04/03 04:53:06;;;;;;;6.40;4.75;;;;;;;3.61;60.48;98714.53;1786461;80;20274;-45
2021/04/03 04:55:36;;;;;;;9.10;5.65;;;;;;;3.54;60.78;98718.83;1797314;78;21565;-45
2021/04/03 04:58:04;;;;;;;13.20;5.85;;;;;;;3.55;60.90;98726.55;1802404;78;21150;-45
2021/04/03 05:00:32;;;;;;;11.65;5.85;;;;;;;3.61;60.74;98722.57;1780408;79;22794;-44
2021/04/03 05:03:05;;;;;;;8.33;4.87;;;;;;;3.61;60.73;98718.55;1782046;78;21146;-44
2021/04/03 05:05:33;;;;;;;9.78;5.40;;;;;;;3.54;60.85;98715.60;1768750;81;21182;-44
2021/04/03 05:08:02;;;;;;;7.67;4.97;;;;;;;3.54;60.90;98712.92;1768124;80;21158;-44
2021/04/03 05:10:31;;;;;;;5.95;3.70;;;;;;;3.50;61.17;98711.46;1768455;81;21104;-44
2021/04/03 05:13:01;;;;;;;8.98;4.87;;;;;;;3.56;61.39;98713.39;1801681;77;21156;-44
2021/04/03 05:15:30;;;;;;;8.68;5.65;;;;;;;3.63;61.22;98710.95;1808450;77;22143;-44
2021/04/03 05:17:57;;;;;;;7.60;5.25;;;;;;;3.72;61.11;98710.89;1796646;77;21063;-44
2021/04/03 05:20:25;;;;;;;8.45;5.08;;;;;;;3.77;61.03;98708.80;1753335;80;21039;-44
2021/04/03 05:22:56;;;;;;;7.85;5.25;;;;;;;3.79;60.93;98705.20;1766265;80;21163;-44
2021/04/03 05:25:23;;;;;;;8.20;4.90;;;;;;;3.84;61.05;98717.62;1791327;79;21151;-45
2021/04/03 05:27:51;;;;;;;9.95;5.55;;;;;;;3.89;60.91;98713.39;1793509;78;21179;-44
2021/04/03 05:30:24;;;;;;;8.65;4.80;;;;;;;3.94;60.83;98718.00;1793572;78;21146;-44
2021/04/03 05:32:52;;;;;;;8.18;5.40;;;;;;;4.02;60.68;98724.95;1795228;78;21168;-45
2021/04/03 05:35:20;;;;;;;7.80;4.90;;;;;;;4.05;60.74;98736.35;1787828;78;21580;-44
2021/04/03 05:37:50;;;;;;;10.40;5.53;;;;;;;4.10;60.51;98733.46;1796546;78;21832;-44
2021/04/03 05:40:17;;;;;;;7.58;4.92;;;;;;;4.11;60.46;98736.37;1798629;78;21162;-44
2021/04/03 05:42:45;;;;;;;10.80;5.50;;;;;;;4.09;60.68;98733.23;1804457;77;21205;-45
2021/04/03 05:45:16;;;;;;;8.95;5.58;;;;;;;4.14;60.88;98746.44;1789184;78;21098;-45
2021/04/03 05:47:46;;;;;;;8.00;5.00;;;;;;;4.18;60.92;98744.65;1802259;77;21082;-45
2021/04/03 05:50:14;;;;;;;9.08;5.20;;;;;;;4.19;60.73;98741.64;1810904;77;21197;-45
2021/04/03 05:52:43;;;;;;;7.60;5.30;;;;;;;4.20;60.79;98745.11;1802938;77;21428;-45
2021/04/03 05:55:13;;;;;;;8.48;5.22;;;;;;;4.25;60.84;98737.64;1804549;78;21158;-45
2021/04/03 05:57:41;;;;;;;9.50;5.03;;;;;;;4.33;60.92;98738.09;1824971;78;21557;-45
2021/04/03 06:00:12;;;;;;;8.38;4.65;;;;;;;4.39;60.88;98738.66;1836156;76;21699;-45
2021/04/03 06:02:40;;;;;;;8.38;4.92;;;;;;;4.42;60.16;98742.56;1813968;76;21445;-45
2021/04/03 06:05:10;;;;;;;9.03;4.78;;;;;;;4.42;60.51;98750.06;1781967;79;21610;-45
2021/04/03 06:07:40;;;;;;;8.18;4.83;;;;;;;4.49;60.80;98757.58;1798990;77;21039;-45
2021/04/03 06:10:09;;;;;;;9.13;4.95;;;;;;;4.59;60.49;98751.22;1804759;76;21182;-45
2021/04/03 06:12:47;;;;;;;;;;;;;;;4.65;60.64;98755.78;1787112;78;21189;-45
2021/04/03 06:15:29;;;;;;;8.68;4.30;;;;;;;4.71;60.55;98755.80;1774880;78;21159;-45
2021/04/03 06:17:59;;;;;;;7.78;4.35;;;;;;;4.73;60.46;98763.76;1804322;78;21146;-45
2021/04/03 06:20:34;;;;;;;7.20;4.53;;;;;;;4.88;60.50;98769.58;1798448;78;21159;-46
2021/04/03 06:23:03;;;;;;;12.10;5.12;;;;;;;5.02;60.14;98762.75;1763980;78;21832;-45
2021/04/03 06:25:34;;;;;;;7.65;4.35;;;;;;;5.18;59.73;98765.54;1773839;78;21146;-45
2021/04/03 06:28:09;;;;;;;8.70;5.08;;;;;;;5.37;59.88;98773.80;1794814;78;23534;-45
2021/04/03 06:30:39;;;;;;;7.50;4.87;;;;;;;5.53;59.61;98769.27;1811613;77;21650;-46
2021/04/03 06:33:16;;;;;;;9.10;4.70;;;;;;;5.71;59.03;98777.07;1796259;78;21166;-45
2021/04/03 06:35:46;;;;;;;9.05;4.70;;;;;;;5.90;58.20;98780.73;1792370;79;21150;-45
2021/04/03 06:38:22;;;;;;;8.03;4.37;;;;;;;6.09;58.21;98780.09;1779849;78;21119;-45
2021/04/03 06:40:50;;;;;;;8.48;5.35;;;;;;;6.27;57.76;98785.38;1813361;78;21311;-46
2021/04/03 06:43:19;;;;;;;7.03;4.75;;;;;;;6.41;57.52;98792.48;1804137;78;21185;-46
2021/04/03 06:45:48;;;;;;;8.30;4.95;;;;;;;6.54;57.64;98791.27;1808224;78;21051;-45
2021/04/03 06:48:16;;;;;;;7.80;4.75;;;;;;;6.74;57.12;98784.63;1812906;78;21149;-45
2021/04/03 06:50:47;;;;;;;7.42;4.70;;;;;;;6.84;55.56;98789.50;1817926;78;21122;-45
2021/04/03 06:53:18;;;;;;;11.68;4.50;;;;;;;6.88;55.71;98791.71;1806677;78;21078;-45
2021/04/03 06:56:38;;;;;;;9.18;4.92;;;;;;;7.07;55.33;98798.52;1820857;77;22572;-44
2021/04/03 06:59:11;;;;;;;6.78;4.42;;;;;;;7.11;55.52;98804.80;1799513;79;21530;-44
2021/04/03 07:01:55;;;;;;;7.58;4.67;;;;;;;7.26;55.39;98803.22;1794825;79;21328;-44
2021/04/03 07:04:42;;;;;;;7.80;3.72;;;;;;;7.37;54.86;98794.78;1759304;80;21044;-44
2021/04/03 07:07:11;;;;;;;6.20;3.65;;;;;;;7.42;54.33;98805.30;1768647;80;20989;-44
2021/04/03 07:09:38;;;;;;;6.00;3.45;;;;;;;7.51;53.86;98813.19;1772223;80;21000;-44
2021/04/03 07:12:08;;;;;;;5.72;3.83;;;;;;;7.62;54.38;98812.86;1730731;80;20981;-44
2021/04/03 07:14:37;;;;;;;6.60;3.65;;;;;;;7.72;52.85;98813.66;1742243;80;21423;-44
2021/04/03 07:17:06;;;;;;;8.60;3.62;;;;;;;7.82;53.27;98813.11;1727473;81;21288;-44
2021/04/03 07:19:34;;;;;;;5.72;3.80;;;;;;;7.96;53.14;98822.84;1715158;82;21080;-44
2021/04/03 07:22:03;;;;;;;6.45;3.47;;;;;;;8.14;53.26;98823.19;1691037;83;21210;-44
2021/04/03 07:24:33;;;;;;;6.05;3.45;;;;;;;8.31;51.44;98828.77;1749143;80;21164;-44
2021/04/03 07:27:03;;;;;;;5.55;3.22;;;;;;;8.47;51.44;98828.87;1757884;79;22471;-45
2021/04/03 07:29:45;;;;;;;5.22;3.40;;;;;;;8.63;50.81;98824.16;1746623;80;22469;-44
2021/04/03 07:32:40;;;;;;;5.28;3.30;;;;;;;8.78;50.33;98823.05;1744557;80;21126;-44
2021/04/03 07:35:18;;;;;;;5.40;2.92;;;;;;;8.87;49.59;98826.30;1754018;80;21148;-44
2021/04/03 07:37:47;;;;;;;6.25;3.10;;;;;;;8.96;49.16;98829.53;1760127;81;21155;-44
2021/04/03 07:40:30;;;;;;;5.12;3.08;;;;;;;9.08;48.96;98835.55;1756798;80;21198;-44
2021/04/03 07:42:58;;;;;;;5.50;3.25;;;;;;;9.23;49.32;98834.42;1758835;80;21156;-44
2021/04/03 07:45:40;;;;;;;5.08;3.20;;;;;;;9.40;48.67;98840.66;1757642;80;21240;-44
2021/04/03 07:50:50;;;;;;;3.72;2.20;;;;;;;9.77;46.42;98847.02;1829459;78;22679;-44
2021/04/03 07:53:41;;;;;;;4.17;2.80;;;;;;;9.85;45.74;98851.95;1771560;79;20991;-44
2021/04/03 07:56:10;;;;;;;4.28;2.37;;;;;;;9.91;45.41;98844.50;1783196;79;21189;-44
2021/04/03 07:58:50;;;;;;;3.50;2.33;;;;;;;9.96;44.69;98841.48;1782258;78;21047;-44
2021/04/03 08:01:22;;;;;;;4.53;2.40;;;;;;;9.97;44.65;98832.18;1781776;77;21576;-45
2021/04/03 08:04:02;;;;;;;3.85;2.40;;;;;;;9.99;44.54;98834.53;1782996;78;21008;-44
2021/04/03 08:06:33;;;;;;;2.98;2.20;;;;;;;10.08;43.64;98835.59;1785845;79;21589;-44
2021/04/03 08:09:04;;;;;;;3.70;2.50;;;;;;;10.12;43.57;98835.84;1788370;77;21185;-43
2021/04/03 08:11:32;;;;;;;5.15;2.80;;;;;;;10.19;43.27;98826.49;1795519;79;21277;-43
2021/04/03 08:14:00;;;;;;;4.42;2.58;;;;;;;10.24;43.61;98820.75;1796141;79;21000;-45
2021/04/03 08:16:30;;;;;;;7.47;2.60;;;;;;;10.35;43.64;98827.64;1788007;79;21174;-44
2021/04/03 08:19:00;;;;;;;5.17;2.62;;;;;;;10.54;43.63;98839.66;1791413;79;21091;-44
2021/04/03 08:21:29;;;;;;;4.93;1.83;;;;;;;10.73;43.17;98840.82;1789818;79;21329;-44
2021/04/03 08:23:58;;;;;;;2.85;2.27;;;;;;;10.85;41.11;98836.47;1804178;79;21164;-44
2021/04/03 08:26:30;;;;;;;3.30;1.80;;;;;;;11.00;41.21;98837.95;1786186;79;21182;-47
2021/04/03 08:28:58;;;;;;;4.42;2.40;;;;;;;11.05;37.75;98838.39;1779913;79;21181;-45
2021/04/03 08:31:29;;;;;;;2.60;2.00;;;;;;;11.03;39.69;98835.29;1762757;79;21095;-41
2021/04/03 08:33:58;;;;;;;;;;;;;;;11.03;39.81;98834.51;1796564;77;22419;-43
2021/04/03 08:36:29;;;;;;;3.08;2.17;;;;;;;11.03;38.92;98837.22;1793248;79;20276;-43
2021/04/03 08:38:59;;;;;;;3.67;2.27;;;;;;;10.87;39.07;98830.11;1733933;80;21157;-43
2021/04/03 08:41:29;;;;;;;3.80;2.60;;;;;;;10.87;39.05;98827.39;1703715;80;21606;-43
2021/04/03 08:43:57;;;;;;;4.08;2.33;;;;;;;10.86;38.97;98823.12;1725540;82;20952;-43
2021/04/03 08:46:25;;;;;;;5.40;2.47;;;;;;;10.88;39.47;98825.47;1746513;81;21378;-43
2021/04/03 08:48:57;;;;;;;3.55;2.37;;;;;;;10.96;40.07;98821.66;1720522;82;21198;-41
2021/04/03 08:51:26;;;;;;;3.72;2.52;;;;;;;11.11;40.37;98823.91;1720007;82;21129;-41
2021/04/03 08:53:59;;;;;;;3.27;2.30;;;;;;;11.19;39.49;98825.51;1716278;82;21177;-41
2021/04/03 08:56:36;;;;;;;4.58;2.75;;;;;;;11.27;39.49;98819.78;1724282;82;21583;-41
2021/04/03 08:59:10;;;;;;;2.77;1.37;;;;;;;11.30;39.67;98814.17;1729483;82;21203;-41
2021/04/03 09:01:43;;;;;;;3.50;1.45;;;;;;;11.30;34.55;98809.52;1729895;82;21206;-41
2021/04/03 09:04:11;;;;;;;2.35;1.40;;;;;;;11.31;34.91;98811.09;1721124;82;21194;-41
2021/04/03 09:06:54;;;;;;;2.98;1.67;;;;;;;11.35;34.18;98808.39;1719084;82;21173;-41
2021/04/03 09:09:28;;;;;;;2.40;1.40;;;;;;;11.23;34.30;98795.14;1719661;82;21170;-41
2021/04/03 09:12:04;;;;;;;1.62;1.30;;;;;;;11.31;33.76;98811.66;1728020;82;22049;-41
2021/04/03 09:14:35;;;;;;;1.55;1.30;;;;;;;11.26;33.90;98813.37;1721910;82;21194;-42
2021/04/03 09:17:23;;;;;;;2.15;1.22;;;;;;;11.27;35.14;98813.58;1725485;82;21413;-41
2021/04/03 09:19:53;;;;;;;4.60;1.60;;;;;;;11.40;33.42;98812.11;1724588;82;21150;-43
2021/04/03 09:22:21;;;;;;;2.20;1.50;;;;;;;11.50;34.01;98815.47;1718827;82;21545;-43
2021/04/03 09:24:59;;;;;;;2.47;1.67;;;;;;;11.66;33.99;98817.33;1742452;82;21275;-43
2021/04/03 09:27:26;;;;;;;5.37;1.70;;;;;;;11.81;33.77;98821.50;1725563;82;21138;-42
2021/04/03 09:30:06;;;;;;;1.82;1.27;;;;;;;11.99;33.98;98820.42;1734678;82;21060;-42
2021/04/03 09:32:46;;;;;;;3.90;2.02;;;;;;;12.17;34.44;98823.20;1721285;82;21214;-42
2021/04/03 09:35:26;;;;;;;3.80;1.77;;;;;;;12.42;34.12;98820.00;1716168;83;21119;-43
2021/04/03 09:38:02;;;;;;;1.98;1.50;;;;;;;12.63;33.92;98830.90;1723132;82;21381;-42
2021/04/03 09:40:42;;;;;;;2.55;1.65;;;;;;;12.76;33.37;98816.95;1735693;82;21071;-43
2021/04/03 09:43:11;;;;;;;4.30;1.87;;;;;;;12.80;33.41;98813.65;1726983;81;21171;-42
2021/04/03 09:45:41;;;;;;;3.05;1.62;;;;;;;12.84;32.16;98811.70;1720382;82;21158;-43
2021/04/03 09:48:10;;;;;;;2.62;1.67;;;;;;;12.80;32.78;98808.20;1723373;82;21577;-43
2021/04/03 09:53:17;;;;;;;5.10;2.02;;;;;;;12.97;32.42;98812.29;1872256;76;22654;-41
2021/04/03 09:55:45;;;;;;;3.75;1.95;;;;;;;13.01;33.13;98815.81;1837041;75;21581;-42
2021/04/03 09:58:12;;;;;;;2.33;1.55;;;;;;;13.15;32.66;98815.06;1845476;75;21357;-42
2021/04/03 10:00:41;;;;;;;2.80;1.40;;;;;;;13.29;30.61;98820.50;1838856;75;21604;-42
2021/04/03 10:03:09;;;;;;;3.50;1.52;;;;;;;13.36;31.83;98830.61;1801877;78;20958;-42
2021/04/03 10:05:39;;;;;;;1.30;1.05;;;;;;;13.41;31.50;98828.83;1802313;78;21015;-42
2021/04/03 10:08:07;;;;;;;2.10;1.20;;;;;;;13.43;31.22;98834.09;1790633;78;21455;-42
2021/04/03 10:10:39;;;;;;;2.42;1.57;;;;;;;13.41;31.23;98829.61;1810201;77;21338;-42
2021/04/03 10:13:08;;;;;;;2.10;1.40;;;;;;;13.41;29.44;98840.50;1804176;77;21526;-42
2021/04/03 10:15:38;;;;;;;1.75;1.22;;;;;;;13.26;31.72;98836.26;1809773;77;21032;-41
2021/04/03 10:18:08;;;;;;;2.47;1.40;;;;;;;13.18;31.07;98837.41;1768231;80;21019;-42
2021/04/03 10:20:36;;;;;;;1.30;1.10;;;;;;;13.05;30.12;98827.47;1797053;78;21161;-41
2021/04/03 10:23:04;;;;;;;1.90;1.20;;;;;;;12.90;29.96;98819.69;1803707;78;21297;-42
2021/04/03 10:25:32;;;;;;;1.98;1.32;;;;;;;12.77;30.99;98830.75;1821135;77;21198;-42
2021/04/03 10:28:01;;;;;;;2.35;1.40;;;;;;;12.74;31.85;98826.06;1814103;77;21193;-41
2021/04/03 10:30:29;;;;;;;5.03;2.10;;;;;;;12.87;32.21;98819.11;1800577;77;21161;-41
2021/04/03 10:32:58;;;;;;;2.45;1.27;;;;;;;12.99;32.54;98824.16;1770620;79;21433;-42
2021/04/03 10:35:26;;;;;;;4.20;1.52;;;;;;;13.14;32.75;98818.94;1777045;78;21198;-42
2021/04/03 10:37:54;;;;;;;2.15;1.40;;;;;;;13.46;32.01;98826.49;1813826;77;21169;-41
2021/04/03 10:40:22;;;;;;;1.50;1.20;;;;;;;13.81;31.34;98820.20;1794314;78;21183;-41
2021/04/03 10:42:50;;;;;;;3.05;1.40;;;;;;;14.07;30.84;98821.68;1802812;78;21121;-41
2021/04/03 10:45:19;;;;;;;1.77;1.20;;;;;;;14.31;30.75;98824.89;1800533;78;21132;-41
2021/04/03 10:47:47;;;;;;;1.73;1.40;;;;;;;14.59;30.07;98827.30;1798165;78;21141;-42
2021/04/03 10:50:16;;;;;;;2.33;1.30;;;;;;;14.87;30.53;98821.65;1801224;78;21161;-41
2021/04/03 10:52:45;;;;;;;1.70;1.07;;;;;;;15.15;29.50;98820.06;1788780;79;21139;-42
2021/04/03 10:55:15;;;;;;;2.50;1.10;;;;;;;15.51;29.03;98814.32;1791144;78;21731;-42
2021/04/03 10:57:43;;;;;;;3.15;1.10;;;;;;;15.51;29.03;98814.32;1816297;77;21933;-42
2021/04/03 11:00:13;;;;;;;1.20;0.85;;;;;;;15.68;27.42;98812.02;1808258;78;22053;-42
2021/04/03 11:02:43;;;;;;;2.10;1.20;;;;;;;15.74;27.75;98809.59;1791519;78;21188;-42
2021/04/03 11:05:13;;;;;;;1.67;1.20;;;;;;;15.88;27.87;98812.94;1806872;78;21078;-42
2021/04/03 11:07:41;;;;;;;1.35;0.90;;;;;;;16.06;28.37;98800.45;1788262;78;21181;-41
2021/04/03 11:10:10;;;;;;;2.40;1.05;;;;;;;16.19;27.25;98799.31;1807903;77;21533;-42
2021/04/03 11:12:40;;;;;;;1.32;0.95;;;;;;;16.25;26.54;98795.72;1792762;78;22308;-42
2021/04/03 11:15:11;;;;;;;2.35;1.20;;;;;;;16.26;27.47;98801.38;1779375;78;21021;-42
2021/04/03 11:17:39;;;;;;;1.70;1.10;;;;;;;16.29;28.02;98803.87;1795584;78;21543;-42
2021/04/03 11:20:11;;;;;;;1.60;1.10;;;;;;;16.42;27.70;98798.02;1782702;78;21202;-42
2021/04/03 11:22:40;;;;;;;1.47;1.00;;;;;;;16.64;27.28;98797.95;1786911;78;21143;-42
2021/04/03 11:25:09;;;;;;;2.83;1.12;;;;;;;16.87;26.61;98800.72;1793496;78;21997;-42
2021/04/03 11:27:37;;;;;;;1.62;1.20;;;;;;;17.10;26.56;98800.55;1791502;78;21145;-42
2021/04/03 11:30:13;;;;;;;2.25;1.15;;;;;;;17.34;26.36;98806.20;1804707;78;21138;-42
2021/04/03 11:32:47;;;;;;;1.10;0.93;;;;;;;17.67;25.82;98806.61;1789989;78;21608;-42
2021/04/03 11:35:20;;;;;;;3.30;1.35;;;;;;;17.91;24.14;98806.58;1798228;78;21531;-42
2021/04/03 11:37:49;;;;;;;1.80;1.30;;;;;;;17.96;25.52;98807.46;1792025;78;21189;-42
2021/04/03 11:40:18;;;;;;;2.65;1.20;;;;;;;18.04;25.52;98801.41;1798397;78;21157;-42
2021/04/03 11:42:52;;;;;;;1.72;1.00;;;;;;;18.20;24.89;98803.44;1798519;77;21129;-42
2021/04/03 11:45:18;;;;;;;;;;;;;;;18.22;22.85;98807.30;1796783;78;21185;-42
2021/04/03 11:47:46;;;;;;;1.67;1.00;;;;;;;17.98;23.07;98807.20;1786351;78;20286;-42
2021/04/03 11:50:15;;;;;;;1.30;1.07;;;;;;;17.79;23.57;98812.08;1803248;78;22279;-42
2021/04/03 11:52:43;;;;;;;0.95;0.90;;;;;;;17.72;23.03;98803.38;1798755;79;21099;-42
2021/04/03 11:55:14;;;;;;;3.08;1.10;;;;;;;17.58;23.15;98811.84;1800997;78;21892;-42
2021/04/03 11:57:43;;;;;;;1.92;1.00;;;;;;;17.36;24.15;98815.57;1792471;78;21190;-42
2021/04/03 12:00:12;;;;;;;2.75;1.40;;;;;;;17.32;24.80;98819.56;1793064;79;21162;-42
2021/04/03 12:03:00;;;;;;;1.98;1.50;;;;;;;17.36;24.32;98814.80;1793610;77;21706;-42
2021/04/03 12:05:36;;;;;;;1.32;0.93;;;;;;;17.28;25.08;98814.13;1808701;79;21023;-42